sensor_id;sensor_type;location;lat;lon;timestamp;pressure;altitude;pressure_sealevel;temperature;humidity
70338;BME280;57757;53.198;19.646;2024-02-15T00:01:28;100570.20;;;5.57;75.60
70338;BME280;57757;53.198;19.646;2024-02-15T00:03:55;100568.81;;;5.56;75.50
70338;BME280;57757;53.198;19.646;2024-02-15T00:06:23;100566.92;;;5.56;75.54
70338;BME280;57757;53.198;19.646;2024-02-15T00:08:50;100565.20;;;5.55;75.52
70338;BME280;57757;53.198;19.646;2024-02-15T00:11:19;100558.98;;;5.55;75.48
70338;BME280;57757;53.198;19.646;2024-02-15T00:13:47;100557.10;;;5.55;75.55
70338;BME280;57757;53.198;19.646;2024-02-15T00:16:14;100558.82;;;5.55;75.61
70338;BME280;57757;53.198;19.646;2024-02-15T00:18:44;100560.70;;;5.56;75.68
70338;BME280;57757;53.198;19.646;2024-02-15T00:21:12;100563.13;;;5.55;75.54
70338;BME280;57757;53.198;19.646;2024-02-15T00:23:41;100566.23;;;5.56;75.50
70338;BME280;57757;53.198;19.646;2024-02-15T00:26:10;100567.26;;;5.56;75.73
70338;BME280;57757;53.198;19.646;2024-02-15T00:28:41;100565.02;;;5.56;75.63
70338;BME280;57757;53.198;19.646;2024-02-15T00:31:09;100563.30;;;5.56;75.76
70338;BME280;57757;53.198;19.646;2024-02-15T00:33:36;100567.26;;;5.57;75.65
70338;BME280;57757;53.198;19.646;2024-02-15T00:36:05;100569.15;;;5.56;75.56
70338;BME280;57757;53.198;19.646;2024-02-15T00:38:33;100568.98;;;5.56;75.60
70338;BME280;57757;53.198;19.646;2024-02-15T00:41:01;100569.16;;;5.55;75.68
70338;BME280;57757;53.198;19.646;2024-02-15T00:43:28;100573.64;;;5.56;75.66
70338;BME280;57757;53.198;19.646;2024-02-15T00:45:56;100570.55;;;5.55;75.63
70338;BME280;57757;53.198;19.646;2024-02-15T00:48:24;100572.45;;;5.55;75.60
70338;BME280;57757;53.198;19.646;2024-02-15T00:50:54;100573.64;;;5.56;75.69
70338;BME280;57757;53.198;19.646;2024-02-15T00:53:22;100570.89;;;5.55;75.55
70338;BME280;57757;53.198;19.646;2024-02-15T00:55:49;100572.60;;;5.56;75.58
70338;BME280;57757;53.198;19.646;2024-02-15T00:58:17;100571.41;;;5.55;75.64
70338;BME280;57757;53.198;19.646;2024-02-15T01:00:44;100571.23;;;5.54;75.57
70338;BME280;57757;53.198;19.646;2024-02-15T01:03:12;100570.19;;;5.53;75.61
70338;BME280;57757;53.198;19.646;2024-02-15T01:05:39;100569.31;;;5.53;75.62
70338;BME280;57757;53.198;19.646;2024-02-15T01:08:07;100571.56;;;5.53;75.64
70338;BME280;57757;53.198;19.646;2024-02-15T01:10:36;100571.91;;;5.52;75.61
70338;BME280;57757;53.198;19.646;2024-02-15T01:13:04;100568.64;;;5.52;75.63
70338;BME280;57757;53.198;19.646;2024-02-15T01:15:32;100562.77;;;5.51;75.70
70338;BME280;57757;53.198;19.646;2024-02-15T01:17:59;100564.16;;;5.51;75.64
70338;BME280;57757;53.198;19.646;2024-02-15T01:20:27;100565.36;;;5.51;75.74
70338;BME280;57757;53.198;19.646;2024-02-15T01:22:55;100563.29;;;5.50;75.84
70338;BME280;57757;53.198;19.646;2024-02-15T01:25:22;100558.62;;;5.49;75.75
70338;BME280;57757;53.198;19.646;2024-02-15T01:27:50;100559.48;;;5.48;75.89
70338;BME280;57757;53.198;19.646;2024-02-15T01:30:18;100560.88;;;5.47;75.90
70338;BME280;57757;53.198;19.646;2024-02-15T01:32:46;100557.41;;;5.46;75.86
70338;BME280;57757;53.198;19.646;2024-02-15T01:35:13;100554.80;;;5.46;75.77
70338;BME280;57757;53.198;19.646;2024-02-15T01:37:41;100557.74;;;5.44;75.87
70338;BME280;57757;53.198;19.646;2024-02-15T01:40:08;100551.70;;;5.43;75.86
70338;BME280;57757;53.198;19.646;2024-02-15T01:42:40;100551.35;;;5.42;75.90
70338;BME280;57757;53.198;19.646;2024-02-15T01:45:07;100551.34;;;5.41;75.98
70338;BME280;57757;53.198;19.646;2024-02-15T01:47:38;100552.55;;;5.39;75.95
70338;BME280;57757;53.198;19.646;2024-02-15T01:50:10;100549.61;;;5.37;76.01
70338;BME280;57757;53.198;19.646;2024-02-15T01:52:40;100548.05;;;5.37;76.10
70338;BME280;57757;53.198;19.646;2024-02-15T01:55:08;100543.58;;;5.35;75.95
70338;BME280;57757;53.198;19.646;2024-02-15T01:57:36;100542.19;;;5.35;76.06
70338;BME280;57757;53.198;19.646;2024-02-15T02:00:07;100540.29;;;5.34;76.19
70338;BME280;57757;53.198;19.646;2024-02-15T02:02:42;100540.98;;;5.34;76.07
70338;BME280;57757;53.198;19.646;2024-02-15T02:05:10;100542.20;;;5.33;76.26
70338;BME280;57757;53.198;19.646;2024-02-15T02:07:38;100540.30;;;5.32;76.16
70338;BME280;57757;53.198;19.646;2024-02-15T02:10:07;100538.73;;;5.30;76.19
70338;BME280;57757;53.198;19.646;2024-02-15T02:12:37;100538.89;;;5.28;76.22
70338;BME280;57757;53.198;19.646;2024-02-15T02:15:07;100539.07;;;5.27;76.22
70338;BME280;57757;53.198;19.646;2024-02-15T02:17:35;100539.23;;;5.26;76.32
70338;BME280;57757;53.198;19.646;2024-02-15T02:20:03;100539.92;;;5.24;76.29
70338;BME280;57757;53.198;19.646;2024-02-15T02:22:35;100541.64;;;5.23;76.49
70338;BME280;57757;53.198;19.646;2024-02-15T02:25:07;100544.55;;;5.22;76.52
70338;BME280;57757;53.198;19.646;2024-02-15T02:27:36;100544.89;;;5.22;76.43
70338;BME280;57757;53.198;19.646;2024-02-15T02:30:20;100542.99;;;5.21;76.52
70338;BME280;57757;53.198;19.646;2024-02-15T02:32:49;100540.23;;;5.21;76.59
70338;BME280;57757;53.198;19.646;2024-02-15T02:35:17;100539.04;;;5.20;76.51
70338;BME280;57757;53.198;19.646;2024-02-15T02:37:44;100535.40;;;5.17;76.59
70338;BME280;57757;53.198;19.646;2024-02-15T02:40:12;100534.02;;;5.15;76.64
70338;BME280;57757;53.198;19.646;2024-02-15T02:42:56;100534.17;;;5.14;76.70
70338;BME280;57757;53.198;19.646;2024-02-15T02:45:27;100535.21;;;5.13;76.89
70338;BME280;57757;53.198;19.646;2024-02-15T02:47:54;100531.40;;;5.10;76.78
70338;BME280;57757;53.198;19.646;2024-02-15T02:50:23;100532.77;;;5.08;76.88
70338;BME280;57757;53.198;19.646;2024-02-15T02:52:51;100531.90;;;5.06;76.94
70338;BME280;57757;53.198;19.646;2024-02-15T02:55:19;100535.02;;;5.05;76.91
70338;BME280;57757;53.198;19.646;2024-02-15T02:57:47;100533.44;;;5.03;77.14
70338;BME280;57757;53.198;19.646;2024-02-15T03:00:16;100536.02;;;5.02;77.15
70338;BME280;57757;53.198;19.646;2024-02-15T03:02:45;100532.74;;;5.02;77.11
70338;BME280;57757;53.198;19.646;2024-02-15T03:05:13;100535.85;;;5.01;77.24
70338;BME280;57757;53.198;19.646;2024-02-15T03:07:41;100534.29;;;5.00;77.29
70338;BME280;57757;53.198;19.646;2024-02-15T03:10:10;100532.22;;;4.98;77.25
70338;BME280;57757;53.198;19.646;2024-02-15T03:12:42;100531.19;;;4.98;77.39
70338;BME280;57757;53.198;19.646;2024-02-15T03:15:16;100529.98;;;4.97;77.40
70338;BME280;57757;53.198;19.646;2024-02-15T03:17:47;100536.02;;;4.97;77.45
70338;BME280;57757;53.198;19.646;2024-02-15T03:20:16;100534.79;;;4.96;77.44
70338;BME280;57757;53.198;19.646;2024-02-15T03:22:53;100535.65;;;4.96;77.57
70338;BME280;57757;53.198;19.646;2024-02-15T03:25:25;100540.30;;;4.96;77.71
70338;BME280;57757;53.198;19.646;2024-02-15T03:27:54;100541.51;;;4.96;77.71
70338;BME280;57757;53.198;19.646;2024-02-15T03:30:25;100542.19;;;4.95;77.68
70338;BME280;57757;53.198;19.646;2024-02-15T03:32:53;100542.19;;;4.95;77.66
70338;BME280;57757;53.198;19.646;2024-02-15T03:35:22;100541.33;;;4.95;77.78
70338;BME280;57757;53.198;19.646;2024-02-15T03:37:51;100542.70;;;4.95;77.69
70338;BME280;57757;53.198;19.646;2024-02-15T03:40:20;100544.27;;;4.94;77.80
70338;BME280;57757;53.198;19.646;2024-02-15T03:42:48;100545.48;;;4.93;77.86
70338;BME280;57757;53.198;19.646;2024-02-15T03:45:17;100544.06;;;4.91;77.88
70338;BME280;57757;53.198;19.646;2024-02-15T03:47:45;100540.63;;;4.90;78.01
70338;BME280;57757;53.198;19.646;2024-02-15T03:50:13;100545.44;;;4.89;77.88
70338;BME280;57757;53.198;19.646;2024-02-15T03:52:42;100539.24;;;4.89;77.96
70338;BME280;57757;53.198;19.646;2024-02-15T03:55:11;100541.31;;;4.90;77.98
70338;BME280;57757;53.198;19.646;2024-02-15T03:57:39;100543.38;;;4.89;78.01
70338;BME280;57757;53.198;19.646;2024-02-15T04:00:14;100542.52;;;4.89;78.16
70338;BME280;57757;53.198;19.646;2024-02-15T04:02:49;100537.86;;;4.90;78.18
70338;BME280;57757;53.198;19.646;2024-02-15T04:05:18;100541.31;;;4.90;78.17
70338;BME280;57757;53.198;19.646;2024-02-15T04:07:46;100543.55;;;4.89;78.33
70338;BME280;57757;53.198;19.646;2024-02-15T04:10:15;100539.41;;;4.89;78.26
70338;BME280;57757;53.198;19.646;2024-02-15T04:12:45;100540.43;;;4.89;78.33
70338;BME280;57757;53.198;19.646;2024-02-15T04:15:13;100540.77;;;4.88;78.38
70338;BME280;57757;53.198;19.646;2024-02-15T04:17:44;100538.70;;;4.87;78.37
70338;BME280;57757;53.198;19.646;2024-02-15T04:20:13;100536.12;;;4.88;78.35
70338;BME280;57757;53.198;19.646;2024-02-15T04:22:42;100534.57;;;4.87;78.51
70338;BME280;57757;53.198;19.646;2024-02-15T04:25:11;100534.91;;;4.88;78.37
70338;BME280;57757;53.198;19.646;2024-02-15T04:27:45;100530.43;;;4.87;78.54
70338;BME280;57757;53.198;19.646;2024-02-15T04:30:19;100529.22;;;4.87;78.67
70338;BME280;57757;53.198;19.646;2024-02-15T04:32:48;100530.27;;;4.87;78.71
70338;BME280;57757;53.198;19.646;2024-02-15T04:35:16;100531.99;;;4.87;78.62
70338;BME280;57757;53.198;19.646;2024-02-15T04:37:44;100531.64;;;4.85;78.65
70338;BME280;57757;53.198;19.646;2024-02-15T04:40:14;100535.42;;;4.85;78.74
70338;BME280;57757;53.198;19.646;2024-02-15T04:42:42;100536.98;;;4.85;78.90
70338;BME280;57757;53.198;19.646;2024-02-15T04:45:13;100538.19;;;4.85;78.85
70338;BME280;57757;53.198;19.646;2024-02-15T04:47:43;100540.25;;;4.85;78.80
70338;BME280;57757;53.198;19.646;2024-02-15T04:50:13;100537.14;;;4.84;78.86
70338;BME280;57757;53.198;19.646;2024-02-15T04:52:40;100537.14;;;4.85;79.00
70338;BME280;57757;53.198;19.646;2024-02-15T04:55:12;100540.95;;;4.85;79.06
70338;BME280;57757;53.198;19.646;2024-02-15T04:57:40;100539.23;;;4.86;79.04
70338;BME280;57757;53.198;19.646;2024-02-15T05:00:08;100537.33;;;4.86;79.06
70338;BME280;57757;53.198;19.646;2024-02-15T05:02:37;100539.57;;;4.86;79.14
70338;BME280;57757;53.198;19.646;2024-02-15T05:05:10;100542.16;;;4.86;79.06
70338;BME280;57757;53.198;19.646;2024-02-15T05:07:39;100542.49;;;4.85;79.18
70338;BME280;57757;53.198;19.646;2024-02-15T05:10:08;100543.02;;;4.86;79.14
70338;BME280;57757;53.198;19.646;2024-02-15T05:12:38;100542.67;;;4.86;79.26
70338;BME280;57757;53.198;19.646;2024-02-15T05:15:09;100543.88;;;4.85;79.39
70338;BME280;57757;53.198;19.646;2024-02-15T05:17:40;100542.16;;;4.86;79.21
70338;BME280;57757;53.198;19.646;2024-02-15T05:20:10;100544.22;;;4.86;79.30
70338;BME280;57757;53.198;19.646;2024-02-15T05:22:42;100539.92;;;4.86;79.38
70338;BME280;57757;53.198;19.646;2024-02-15T05:25:19;100544.58;;;4.87;79.33
70338;BME280;57757;53.198;19.646;2024-02-15T05:27:55;100539.91;;;4.86;79.39
70338;BME280;57757;53.198;19.646;2024-02-15T05:30:25;100542.84;;;4.87;79.47
70338;BME280;57757;53.198;19.646;2024-02-15T05:32:53;100544.73;;;4.88;79.48
70338;BME280;57757;53.198;19.646;2024-02-15T05:35:23;100541.29;;;4.88;79.46
70338;BME280;57757;53.198;19.646;2024-02-15T05:37:52;100537.66;;;4.88;79.65
70338;BME280;57757;53.198;19.646;2024-02-15T05:40:20;100539.05;;;4.88;79.54
70338;BME280;57757;53.198;19.646;2024-02-15T05:42:47;100541.48;;;4.89;79.53
70338;BME280;57757;53.198;19.646;2024-02-15T05:45:41;100543.20;;;4.89;79.58
70338;BME280;57757;53.198;19.646;2024-02-15T05:48:09;100543.20;;;4.90;79.70
70338;BME280;57757;53.198;19.646;2024-02-15T05:50:40;100542.52;;;4.90;79.81
70338;BME280;57757;53.198;19.646;2024-02-15T05:53:07;100543.20;;;4.91;79.72
70338;BME280;57757;53.198;19.646;2024-02-15T05:55:35;100544.76;;;4.91;79.77
70338;BME280;57757;53.198;19.646;2024-02-15T05:58:05;100549.08;;;4.92;79.84
70338;BME280;57757;53.198;19.646;2024-02-15T06:00:33;100553.58;;;4.93;79.95
70338;BME280;57757;53.198;19.646;2024-02-15T06:03:01;100553.91;;;4.95;79.89
70338;BME280;57757;53.198;19.646;2024-02-15T06:05:30;100558.05;;;4.94;79.93
70338;BME280;57757;53.198;19.646;2024-02-15T06:07:58;100557.02;;;4.95;79.92
70338;BME280;57757;53.198;19.646;2024-02-15T06:10:26;100553.05;;;4.95;80.04
70338;BME280;57757;53.198;19.646;2024-02-15T06:12:53;100557.18;;;4.95;80.04
70338;BME280;57757;53.198;19.646;2024-02-15T06:15:22;100554.09;;;4.96;79.92
70338;BME280;57757;53.198;19.646;2024-02-15T06:17:50;100554.45;;;4.96;79.99
70338;BME280;57757;53.198;19.646;2024-02-15T06:20:18;100556.02;;;4.97;80.21
70338;BME280;57757;53.198;19.646;2024-02-15T06:22:47;100559.98;;;4.98;80.19
70338;BME280;57757;53.198;19.646;2024-02-15T06:25:15;100564.80;;;5.01;80.26
70338;BME280;57757;53.198;19.646;2024-02-15T06:27:47;100570.33;;;5.02;80.30
70338;BME280;57757;53.198;19.646;2024-02-15T06:30:15;100573.08;;;5.02;80.24
70338;BME280;57757;53.198;19.646;2024-02-15T06:32:46;100576.17;;;5.02;80.36
70338;BME280;57757;53.198;19.646;2024-02-15T06:35:16;100578.77;;;5.03;80.43
70338;BME280;57757;53.198;19.646;2024-02-15T06:37:48;100576.38;;;5.04;80.41
70338;BME280;57757;53.198;19.646;2024-02-15T06:40:18;100582.94;;;5.06;80.41
70338;BME280;57757;53.198;19.646;2024-02-15T06:42:46;100583.96;;;5.06;80.46
70338;BME280;57757;53.198;19.646;2024-02-15T06:45:14;100581.56;;;5.07;80.52
70338;BME280;57757;53.198;19.646;2024-02-15T06:47:42;100577.08;;;5.09;80.40
70338;BME280;57757;53.198;19.646;2024-02-15T06:50:12;100576.57;;;5.11;80.54
70338;BME280;57757;53.198;19.646;2024-02-15T06:52:41;100581.94;;;5.13;80.52
70338;BME280;57757;53.198;19.646;2024-02-15T06:55:09;100576.42;;;5.14;80.67
70338;BME280;57757;53.198;19.646;2024-02-15T06:57:39;100577.48;;;5.16;80.77
70338;BME280;57757;53.198;19.646;2024-02-15T07:00:10;100580.41;;;5.19;80.68
70338;BME280;57757;53.198;19.646;2024-02-15T07:02:43;100577.31;;;5.21;80.74
70338;BME280;57757;53.198;19.646;2024-02-15T07:05:12;100574.73;;;5.22;80.67
70338;BME280;57757;53.198;19.646;2024-02-15T07:07:40;100575.96;;;5.25;80.72
70338;BME280;57757;53.198;19.646;2024-02-15T07:10:10;100575.27;;;5.27;80.75
70338;BME280;57757;53.198;19.646;2024-02-15T07:12:37;100583.02;;;5.29;80.92
70338;BME280;57757;53.198;19.646;2024-02-15T07:15:05;100584.61;;;5.31;80.80
70338;BME280;57757;53.198;19.646;2024-02-15T07:17:36;100584.44;;;5.34;80.78
70338;BME280;57757;53.198;19.646;2024-02-15T07:20:04;100586.68;;;5.36;80.82
70338;BME280;57757;53.198;19.646;2024-02-15T07:22:32;100590.83;;;5.38;80.87
70338;BME280;57757;53.198;19.646;2024-02-15T07:25:00;100590.67;;;5.40;80.95
70338;BME280;57757;53.198;19.646;2024-02-15T07:27:27;100587.59;;;5.44;80.90
70338;BME280;57757;53.198;19.646;2024-02-15T07:29:55;100589.48;;;5.46;80.98
70338;BME280;57757;53.198;19.646;2024-02-15T07:32:25;100584.84;;;5.48;81.07
70338;BME280;57757;53.198;19.646;2024-02-15T07:34:54;100587.27;;;5.51;81.11
70338;BME280;57757;53.198;19.646;2024-02-15T07:37:22;100589.35;;;5.54;81.10
70338;BME280;57757;53.198;19.646;2024-02-15T07:39:53;100590.90;;;5.57;81.04
70338;BME280;57757;53.198;19.646;2024-02-15T07:42:21;100587.46;;;5.58;81.26
70338;BME280;57757;53.198;19.646;2024-02-15T07:44:52;100587.12;;;5.61;81.21
70338;BME280;57757;53.198;19.646;2024-02-15T07:47:22;100589.20;;;5.63;81.16
70338;BME280;57757;53.198;19.646;2024-02-15T07:49:51;100587.65;;;5.65;81.16
70338;BME280;57757;53.198;19.646;2024-02-15T07:52:19;100589.90;;;5.68;81.28
70338;BME280;57757;53.198;19.646;2024-02-15T07:54:46;100584.05;;;5.72;81.49
70338;BME280;57757;53.198;19.646;2024-02-15T07:57:14;100587.16;;;5.77;81.34
70338;BME280;57757;53.198;19.646;2024-02-15T07:59:42;100583.21;;;5.81;81.35
70338;BME280;57757;53.198;19.646;2024-02-15T08:02:10;100578.41;;;5.87;81.68
70338;BME280;57757;53.198;19.646;2024-02-15T08:04:39;100578.25;;;5.91;81.63
70338;BME280;57757;53.198;19.646;2024-02-15T08:07:08;100577.91;;;5.97;81.56
70338;BME280;57757;53.198;19.646;2024-02-15T08:09:38;100579.66;;;6.02;81.60
70338;BME280;57757;53.198;19.646;2024-02-15T08:12:10;100579.84;;;6.07;81.63
70338;BME280;57757;53.198;19.646;2024-02-15T08:14:37;100577.77;;;6.10;81.56
70338;BME280;57757;53.198;19.646;2024-02-15T08:17:07;100577.23;;;6.13;81.59
70338;BME280;57757;53.198;19.646;2024-02-15T08:19:35;100581.73;;;6.14;81.52
70338;BME280;57757;53.198;19.646;2024-02-15T08:22:05;100582.60;;;6.16;81.62
70338;BME280;57757;53.198;19.646;2024-02-15T08:24:33;100581.39;;;6.20;81.70
70338;BME280;57757;53.198;19.646;2024-02-15T08:27:03;100585.71;;;6.25;81.80
70338;BME280;57757;53.198;19.646;2024-02-15T08:29:32;100590.55;;;6.28;81.69
70338;BME280;57757;53.198;19.646;2024-02-15T08:31:59;100593.31;;;6.29;81.67
70338;BME280;57757;53.198;19.646;2024-02-15T08:34:27;100595.05;;;6.32;81.76
70338;BME280;57757;53.198;19.646;2024-02-15T08:36:55;100600.91;;;6.34;81.79
70338;BME280;57757;53.198;19.646;2024-02-15T08:39:25;100603.85;;;6.33;81.84
70338;BME280;57757;53.198;19.646;2024-02-15T08:41:53;100605.59;;;6.35;81.71
70338;BME280;57757;53.198;19.646;2024-02-15T08:44:23;100603.86;;;6.36;81.77
70338;BME280;57757;53.198;19.646;2024-02-15T08:46:51;100608.35;;;6.38;81.77
70338;BME280;57757;53.198;19.646;2024-02-15T08:49:19;100608.52;;;6.40;81.94
70338;BME280;57757;53.198;19.646;2024-02-15T08:51:48;100610.25;;;6.43;81.93
70338;BME280;57757;53.198;19.646;2024-02-15T08:54:17;100607.32;;;6.46;81.84
70338;BME280;57757;53.198;19.646;2024-02-15T08:56:44;100606.45;;;6.50;81.93
70338;BME280;57757;53.198;19.646;2024-02-15T08:59:12;100609.56;;;6.54;82.11
70338;BME280;57757;53.198;19.646;2024-02-15T09:01:42;100612.14;;;6.56;81.93
70338;BME280;57757;53.198;19.646;2024-02-15T09:04:10;100613.87;;;6.60;81.97
70338;BME280;57757;53.198;19.646;2024-02-15T09:06:38;100617.67;;;6.64;82.17
70338;BME280;57757;53.198;19.646;2024-02-15T09:09:09;100611.98;;;6.67;82.04
70338;BME280;57757;53.198;19.646;2024-02-15T09:11:36;100610.76;;;6.71;82.08
70338;BME280;57757;53.198;19.646;2024-02-15T09:14:04;100611.78;;;6.75;82.03
70338;BME280;57757;53.198;19.646;2024-02-15T09:16:31;100611.09;;;6.79;82.24
70338;BME280;57757;53.198;19.646;2024-02-15T09:19:01;100609.88;;;6.83;82.25
70338;BME280;57757;53.198;19.646;2024-02-15T09:21:32;100610.39;;;6.87;82.23
70338;BME280;57757;53.198;19.646;2024-02-15T09:24:00;100615.39;;;6.91;82.03
70338;BME280;57757;53.198;19.646;2024-02-15T09:26:28;100609.85;;;6.94;82.33
70338;BME280;57757;53.198;19.646;2024-02-15T09:28:55;100612.45;;;6.99;82.36
70338;BME280;57757;53.198;19.646;2024-02-15T09:31:24;100613.81;;;7.05;82.37
70338;BME280;57757;53.198;19.646;2024-02-15T09:33:53;100617.08;;;7.09;82.30
70338;BME280;57757;53.198;19.646;2024-02-15T09:36:23;100616.90;;;7.14;82.42
70338;BME280;57757;53.198;19.646;2024-02-15T09:38:50;100619.14;;;7.18;82.40
70338;BME280;57757;53.198;19.646;2024-02-15T09:41:18;100622.77;;;7.22;82.41
70338;BME280;57757;53.198;19.646;2024-02-15T09:43:46;100623.98;;;7.23;82.32
70338;BME280;57757;53.198;19.646;2024-02-15T09:46:13;100619.29;;;7.26;82.51
70338;BME280;57757;53.198;19.646;2024-02-15T09:48:42;100617.55;;;7.28;82.46
70338;BME280;57757;53.198;19.646;2024-02-15T09:51:12;100611.48;;;7.31;82.40
70338;BME280;57757;53.198;19.646;2024-02-15T09:53:41;100612.86;;;7.35;82.40
70338;BME280;57757;53.198;19.646;2024-02-15T09:56:09;100611.98;;;7.37;82.47
70338;BME280;57757;53.198;19.646;2024-02-15T09:58:38;100607.83;;;7.40;82.49
70338;BME280;57757;53.198;19.646;2024-02-15T10:01:08;100602.61;;;7.44;82.53
70338;BME280;57757;53.198;19.646;2024-02-15T10:03:38;100605.02;;;7.47;82.55
70338;BME280;57757;53.198;19.646;2024-02-15T10:06:08;100604.50;;;7.50;82.50
70338;BME280;57757;53.198;19.646;2024-02-15T10:08:37;100604.31;;;7.52;82.48
70338;BME280;57757;53.198;19.646;2024-02-15T10:11:08;100609.16;;;7.54;82.56
70338;BME280;57757;53.198;19.646;2024-02-15T10:13:37;100602.73;;;7.57;82.61
70338;BME280;57757;53.198;19.646;2024-02-15T10:18:38;100597.52;;;7.62;82.65
70338;BME280;57757;53.198;19.646;2024-02-15T10:21:07;100599.23;;;7.67;82.79
70338;BME280;57757;53.198;19.646;2024-02-15T10:23:34;100600.08;;;7.72;82.79
70338;BME280;57757;53.198;19.646;2024-02-15T10:26:19;100597.30;;;7.74;82.65
70338;BME280;57757;53.198;19.646;2024-02-15T10:28:46;100595.36;;;7.76;82.86
70338;BME280;57757;53.198;19.646;2024-02-15T10:31:14;100593.27;;;7.80;82.73
70338;BME280;57757;53.198;19.646;2024-02-15T10:33:42;100589.44;;;7.83;83.08
70338;BME280;57757;53.198;19.646;2024-02-15T10:36:10;100590.96;;;7.90;83.05
70338;BME280;57757;53.198;19.646;2024-02-15T10:38:39;100591.45;;;7.95;83.17
70338;BME280;57757;53.198;19.646;2024-02-15T10:41:08;100592.81;;;7.98;82.96
70338;BME280;57757;53.198;19.646;2024-02-15T10:43:39;100590.87;;;8.01;83.07
70338;BME280;57757;53.198;19.646;2024-02-15T10:46:12;100591.21;;;8.03;83.01
70338;BME280;57757;53.198;19.646;2024-02-15T10:48:40;100587.73;;;8.05;83.00
70338;BME280;57757;53.198;19.646;2024-02-15T10:51:10;100587.21;;;8.07;83.02
70338;BME280;57757;53.198;19.646;2024-02-15T10:53:44;100584.77;;;8.09;82.87
70338;BME280;57757;53.198;19.646;2024-02-15T10:56:18;100578.16;;;8.14;83.12
70338;BME280;57757;53.198;19.646;2024-02-15T10:58:55;100578.13;;;8.19;83.13
70338;BME280;57757;53.198;19.646;2024-02-15T11:01:29;100576.19;;;8.22;83.22
70338;BME280;57757;53.198;19.646;2024-02-15T11:04:05;100575.14;;;8.22;83.06
70338;BME280;57757;53.198;19.646;2024-02-15T11:06:35;100577.92;;;8.23;83.09
70338;BME280;57757;53.198;19.646;2024-02-15T11:09:08;100580.14;;;8.25;83.19
70338;BME280;57757;53.198;19.646;2024-02-15T11:11:37;100583.08;;;8.27;83.14
70338;BME280;57757;53.198;19.646;2024-02-15T11:16:43;100584.80;;;8.32;83.24
70338;BME280;57757;53.198;19.646;2024-02-15T11:22:11;100585.09;;;8.40;83.40
70338;BME280;57757;53.198;19.646;2024-02-15T11:24:55;100587.98;;;8.44;83.45
70338;BME280;57757;53.198;19.646;2024-02-15T11:27:29;100587.99;;;8.45;83.31
70338;BME280;57757;53.198;19.646;2024-02-15T11:29:59;100586.60;;;8.45;83.21
70338;BME280;57757;53.198;19.646;2024-02-15T11:32:46;100578.61;;;8.47;83.41
70338;BME280;57757;53.198;19.646;2024-02-15T11:35:21;100576.84;;;8.51;83.59
70338;BME280;57757;53.198;19.646;2024-02-15T11:37:55;100575.95;;;8.54;83.49
70338;BME280;57757;53.198;19.646;2024-02-15T11:40:28;100574.89;;;8.56;83.46
70338;BME280;57757;53.198;19.646;2024-02-15T11:42:59;100567.95;;;8.57;83.43
70338;BME280;57757;53.198;19.646;2024-02-15T11:45:29;100569.34;;;8.57;83.32
70338;BME280;57757;53.198;19.646;2024-02-15T11:48:02;100568.48;;;8.57;83.29
70338;BME280;57757;53.198;19.646;2024-02-15T11:50:34;100569.00;;;8.56;83.40
70338;BME280;57757;53.198;19.646;2024-02-15T11:53:06;100568.11;;;8.58;83.45
70338;BME280;57757;53.198;19.646;2024-02-15T11:55:39;100564.80;;;8.59;83.49
70338;BME280;57757;53.198;19.646;2024-02-15T11:58:08;100561.51;;;8.60;83.60
70338;BME280;57757;53.198;19.646;2024-02-15T12:00:37;100561.12;;;8.63;83.60
70338;BME280;57757;53.198;19.646;2024-02-15T12:03:21;100560.05;;;8.68;83.63
70338;BME280;57757;53.198;19.646;2024-02-15T12:06:07;100559.50;;;8.71;83.74
70338;BME280;57757;53.198;19.646;2024-02-15T12:08:52;100556.88;;;8.73;83.70
70338;BME280;57757;53.198;19.646;2024-02-15T12:11:37;100558.06;;;8.75;83.54
70338;BME280;57757;53.198;19.646;2024-02-15T12:14:20;100553.90;;;8.75;83.53
70338;BME280;57757;53.198;19.646;2024-02-15T12:17:11;100556.15;;;8.75;83.68
70338;BME280;57757;53.198;19.646;2024-02-15T12:19:57;100557.02;;;8.77;83.65
70338;BME280;57757;53.198;19.646;2024-02-15T12:22:28;100563.23;;;8.78;83.60
70338;BME280;57757;53.198;19.646;2024-02-15T12:25:01;100563.08;;;8.77;83.59
70338;BME280;57757;53.198;19.646;2024-02-15T12:27:33;100563.64;;;8.74;83.55
70338;BME280;57757;53.198;19.646;2024-02-15T12:30:01;100561.56;;;8.72;83.67
70338;BME280;57757;53.198;19.646;2024-02-15T12:32:32;100560.01;;;8.72;83.63
70338;BME280;57757;53.198;19.646;2024-02-15T12:35:20;100560.35;;;8.72;83.71
70338;BME280;57757;53.198;19.646;2024-02-15T12:38:00;100557.22;;;8.73;83.74
70338;BME280;57757;53.198;19.646;2024-02-15T12:40:37;100553.73;;;8.74;83.76
70338;BME280;57757;53.198;19.646;2024-02-15T12:43:08;100548.34;;;8.76;83.80
70338;BME280;57757;53.198;19.646;2024-02-15T12:45:37;100551.63;;;8.78;83.97
70338;BME280;57757;53.198;19.646;2024-02-15T12:48:06;100551.76;;;8.81;83.89
70338;BME280;57757;53.198;19.646;2024-02-15T12:50:35;100549.98;;;8.86;83.98
70338;BME280;57757;53.198;19.646;2024-02-15T12:53:03;100553.73;;;8.90;84.10
70338;BME280;57757;53.198;19.646;2024-02-15T12:55:32;100552.83;;;8.94;84.07
70338;BME280;57757;53.198;19.646;2024-02-15T12:58:03;100554.56;;;8.95;83.91
70338;BME280;57757;53.198;19.646;2024-02-15T13:00:31;100551.25;;;8.96;83.98
70338;BME280;57757;53.198;19.646;2024-02-15T13:03:03;100548.65;;;8.96;84.11
70338;BME280;57757;53.198;19.646;2024-02-15T13:05:32;100548.13;;;8.96;83.97
70338;BME280;57757;53.198;19.646;2024-02-15T13:08:00;100544.30;;;8.97;84.07
70338;BME280;57757;53.198;19.646;2024-02-15T13:10:38;100547.23;;;8.98;84.05
70338;BME280;57757;53.198;19.646;2024-02-15T13:13:07;100549.14;;;8.97;84.04